createdAt,value
2022-10-24T00:01:21.282Z,8.84
2022-10-24T00:03:23.219Z,8.81
2022-10-24T00:05:26.237Z,8.85
2022-10-24T00:07:28.162Z,8.90
2022-10-24T00:09:30.374Z,8.93
2022-10-24T00:11:32.343Z,8.97
2022-10-24T00:13:34.399Z,8.97
2022-10-24T00:15:36.250Z,8.93
2022-10-24T00:17:38.215Z,8.96
2022-10-24T00:19:40.242Z,8.92
2022-10-24T00:21:42.263Z,8.96
2022-10-24T00:23:45.461Z,8.94
2022-10-24T00:25:48.520Z,8.91
2022-10-24T00:27:51.511Z,8.90
2022-10-24T00:29:53.592Z,8.90
2022-10-24T00:31:55.473Z,8.85
2022-10-24T00:33:58.170Z,8.85
2022-10-24T00:36:00.384Z,8.84
2022-10-24T00:38:02.411Z,8.84
2022-10-24T00:40:06.111Z,8.82
2022-10-24T00:42:11.711Z,8.82
2022-10-24T00:44:17.480Z,8.89
2022-10-24T00:46:20.619Z,8.89
2022-10-24T00:48:25.602Z,8.89
2022-10-24T00:50:33.772Z,8.84
2022-10-24T00:52:43.166Z,8.81
2022-10-24T00:54:46.723Z,8.76
2022-10-24T00:57:00.317Z,8.75
2022-10-24T00:59:05.380Z,8.73
2022-10-24T01:01:09.323Z,8.74
2022-10-24T01:03:12.539Z,8.75
2022-10-24T01:05:15.619Z,8.76
2022-10-24T01:07:33.320Z,8.72
2022-10-24T01:09:35.194Z,8.74
2022-10-24T01:11:42.792Z,8.69
2022-10-24T01:13:47.528Z,8.67
2022-10-24T01:16:03.883Z,8.60
2022-10-24T01:18:23.991Z,8.60
2022-10-24T01:20:50.818Z,8.66
2022-10-24T01:23:40.336Z,8.78
2022-10-24T01:26:14.831Z,8.83
2022-10-24T01:28:23.405Z,8.85
2022-10-24T01:30:29.916Z,8.86
2022-10-24T01:32:48.020Z,8.82
2022-10-24T01:35:00.621Z,8.81
2022-10-24T01:37:13.779Z,8.80
2022-10-24T01:39:21.497Z,8.78
2022-10-24T01:41:28.788Z,8.79
2022-10-24T01:43:42.274Z,8.76
2022-10-24T01:45:49.319Z,8.77
2022-10-24T01:47:55.559Z,8.77
2022-10-24T01:50:01.691Z,8.77
2022-10-24T01:52:08.553Z,8.77
2022-10-24T01:54:13.378Z,8.73
2022-10-24T01:56:15.335Z,8.69
2022-10-24T01:58:18.575Z,8.67
2022-10-24T02:00:23.256Z,8.64
2022-10-24T02:02:33.410Z,8.63
2022-10-24T02:04:41.128Z,8.59
2022-10-24T02:06:44.669Z,8.60
2022-10-24T02:08:53.000Z,8.61
2022-10-24T02:11:00.639Z,8.60
2022-10-24T02:13:09.511Z,8.61
2022-10-24T02:15:41.583Z,8.60
2022-10-24T02:17:43.636Z,8.59
2022-10-24T02:19:47.733Z,8.60
2022-10-24T02:22:02.344Z,8.58
2022-10-24T02:24:24.519Z,8.65
2022-10-24T02:26:39.014Z,8.68
2022-10-24T02:28:45.793Z,8.71
2022-10-24T02:31:12.441Z,8.71
2022-10-24T02:33:21.218Z,8.71
2022-10-24T02:35:31.394Z,8.76
2022-10-24T02:37:36.640Z,8.78
2022-10-24T02:39:43.460Z,8.71
2022-10-24T02:41:46.958Z,8.78
2022-10-24T02:43:51.275Z,8.80
2022-10-24T02:45:54.602Z,8.77
2022-10-24T02:48:03.340Z,8.74
2022-10-24T02:50:05.660Z,8.78
2022-10-24T02:52:10.207Z,8.76
2022-10-24T02:54:12.517Z,8.73
2022-10-24T02:56:14.639Z,8.73
2022-10-24T02:58:16.773Z,8.69
2022-10-24T03:00:19.125Z,8.76
2022-10-24T03:02:21.402Z,8.78
2022-10-24T03:04:23.325Z,8.79
2022-10-24T03:06:25.549Z,8.75
2022-10-24T03:08:27.573Z,8.79
2022-10-24T03:10:29.613Z,8.84
2022-10-24T03:12:32.592Z,8.88
2022-10-24T03:14:34.620Z,8.83
2022-10-24T03:16:37.530Z,8.84
2022-10-24T03:18:40.414Z,8.78
2022-10-24T03:20:42.265Z,8.81
2022-10-24T03:22:44.236Z,8.81
2022-10-24T03:24:55.180Z,8.78
2022-10-24T03:26:57.467Z,8.77
2022-10-24T03:28:59.470Z,8.76
2022-10-24T03:31:01.452Z,8.74
2022-10-24T03:33:03.512Z,8.79
2022-10-24T03:35:09.153Z,8.83
2022-10-24T03:37:13.760Z,8.79
2022-10-24T03:39:16.600Z,8.83
2022-10-24T03:41:18.626Z,8.83
2022-10-24T03:43:20.724Z,8.85
2022-10-24T03:45:22.694Z,8.87
2022-10-24T03:47:24.574Z,8.90
2022-10-24T03:49:26.550Z,8.90
2022-10-24T03:51:28.474Z,8.94
2022-10-24T03:53:30.414Z,8.92
2022-10-24T03:55:32.438Z,8.93
2022-10-24T03:57:34.413Z,8.93
2022-10-24T03:59:37.023Z,8.90
2022-10-24T04:01:38.981Z,8.91
2022-10-24T04:03:41.005Z,8.85
2022-10-24T04:05:43.020Z,8.82
2022-10-24T04:07:45.193Z,8.82
2022-10-24T04:09:47.343Z,8.84
2022-10-24T04:11:49.428Z,8.82
2022-10-24T04:13:53.157Z,8.85
2022-10-24T04:15:55.118Z,8.83
2022-10-24T04:17:57.152Z,8.84
2022-10-24T04:20:00.023Z,8.84
2022-10-24T04:22:02.003Z,8.88
2022-10-24T04:24:04.590Z,8.88
2022-10-24T04:26:08.942Z,8.95
2022-10-24T04:28:12.301Z,8.96
2022-10-24T04:30:16.923Z,8.99
2022-10-24T04:32:18.954Z,9.01
2022-10-24T04:34:21.836Z,9.07
2022-10-24T04:36:23.835Z,9.08
2022-10-24T04:38:27.003Z,9.11
2022-10-24T04:40:31.951Z,9.07
2022-10-24T04:42:34.296Z,9.06
2022-10-24T04:44:36.158Z,9.12
2022-10-24T04:46:38.633Z,9.09
2022-10-24T04:48:40.600Z,9.11
2022-10-24T04:50:45.437Z,9.09
2022-10-24T04:52:47.439Z,9.09
2022-10-24T04:54:49.433Z,9.07
2022-10-24T04:56:51.399Z,9.11
2022-10-24T04:58:53.565Z,9.12
2022-10-24T05:00:55.798Z,9.13
2022-10-24T05:02:59.108Z,9.17
2022-10-24T05:05:01.505Z,9.17
2022-10-24T05:07:05.421Z,9.16
2022-10-24T05:09:07.375Z,9.18
2022-10-24T05:11:12.595Z,9.21
2022-10-24T05:13:14.644Z,9.19
2022-10-24T05:15:18.879Z,9.18
2022-10-24T05:17:20.767Z,9.19
2022-10-24T05:19:23.643Z,9.17
2022-10-24T05:21:25.720Z,9.14
2022-10-24T05:23:27.981Z,9.19
2022-10-24T05:25:29.996Z,9.20
2022-10-24T05:27:32.389Z,9.21
2022-10-24T05:29:34.375Z,9.24
2022-10-24T05:31:36.347Z,9.24
2022-10-24T05:33:38.274Z,9.24
2022-10-24T05:35:41.900Z,9.23
2022-10-24T05:37:44.965Z,9.23
2022-10-24T05:39:46.886Z,9.27
2022-10-24T05:41:52.146Z,9.27
2022-10-24T05:43:56.389Z,9.28
2022-10-24T05:45:58.511Z,9.28
2022-10-24T05:48:00.451Z,9.33
2022-10-24T05:50:02.596Z,9.37
2022-10-24T05:52:05.205Z,9.40
2022-10-24T05:54:07.196Z,9.43
2022-10-24T05:56:09.379Z,9.49
2022-10-24T05:58:13.386Z,9.54
2022-10-24T06:00:17.897Z,9.55
2022-10-24T06:02:21.320Z,9.56
2022-10-24T06:04:23.593Z,9.57
2022-10-24T06:06:25.694Z,9.62
2022-10-24T06:08:27.714Z,9.61
2022-10-24T06:10:36.041Z,9.64
2022-10-24T06:12:38.249Z,9.65
2022-10-24T06:14:40.749Z,9.65
2022-10-24T06:16:43.637Z,9.65
2022-10-24T06:18:45.672Z,9.64
2022-10-24T06:20:51.642Z,9.64
2022-10-24T06:22:55.996Z,9.66
2022-10-24T06:24:58.225Z,9.65
2022-10-24T06:27:00.188Z,9.67
2022-10-24T06:29:02.087Z,9.64
2022-10-24T06:31:04.536Z,9.65
2022-10-24T06:33:06.607Z,9.65
2022-10-24T06:35:09.340Z,9.62
2022-10-24T06:37:11.414Z,9.62
2022-10-24T06:39:13.446Z,9.61
2022-10-24T06:41:17.485Z,9.61
2022-10-24T06:43:22.437Z,9.61
2022-10-24T06:45:24.323Z,9.62
2022-10-24T06:47:28.441Z,9.59
2022-10-24T06:49:30.859Z,9.59
2022-10-24T06:51:32.821Z,9.61
2022-10-24T06:53:35.560Z,9.58
2022-10-24T06:55:40.817Z,9.62
2022-10-24T06:57:43.059Z,9.65
2022-10-24T06:59:46.252Z,9.65
2022-10-24T07:01:48.595Z,9.68
2022-10-24T07:03:52.158Z,9.73
2022-10-24T07:05:54.228Z,9.80
2022-10-24T07:07:56.215Z,9.86
2022-10-24T07:09:59.239Z,9.88
2022-10-24T07:12:02.478Z,9.91
2022-10-24T07:14:08.967Z,9.92
2022-10-24T07:16:11.691Z,9.94
2022-10-24T07:18:16.458Z,9.93
2022-10-24T07:20:20.402Z,9.92
2022-10-24T07:22:22.773Z,9.93
2022-10-24T07:24:25.076Z,9.94
2022-10-24T07:26:28.600Z,9.93
2022-10-24T07:28:30.695Z,9.92
2022-10-24T07:30:33.317Z,9.94
2022-10-24T07:32:36.325Z,9.92
2022-10-24T07:34:41.864Z,9.92
2022-10-24T07:36:46.249Z,9.92
2022-10-24T07:38:49.738Z,9.94
2022-10-24T07:40:51.654Z,9.99
2022-10-24T07:42:53.734Z,10.01
2022-10-24T07:44:56.086Z,10.07
2022-10-24T07:46:57.998Z,10.09
2022-10-24T07:49:00.020Z,10.12
2022-10-24T07:51:12.783Z,10.19
2022-10-24T07:53:15.335Z,10.23
2022-10-24T07:55:18.364Z,10.28
2022-10-24T07:57:20.759Z,10.29
2022-10-24T07:59:40.810Z,10.33
2022-10-24T08:01:44.105Z,10.37
2022-10-24T08:03:46.573Z,10.39
2022-10-24T08:05:48.462Z,10.45
2022-10-24T08:07:56.052Z,10.50
2022-10-24T08:10:14.535Z,10.53
2022-10-24T08:12:16.463Z,10.56
2022-10-24T08:14:18.440Z,10.64
2022-10-24T08:16:22.515Z,10.63
2022-10-24T08:18:24.416Z,10.65
2022-10-24T08:20:26.476Z,10.67
2022-10-24T08:22:29.481Z,10.70
2022-10-24T08:24:31.454Z,10.72
2022-10-24T08:26:33.606Z,10.72
2022-10-24T08:28:36.741Z,10.75
2022-10-24T08:30:38.649Z,10.80
2022-10-24T08:32:40.801Z,10.82
2022-10-24T08:34:43.733Z,10.87
2022-10-24T08:36:47.130Z,10.92
2022-10-24T08:38:49.273Z,10.98
2022-10-24T08:40:51.637Z,11.07
2022-10-24T08:42:54.775Z,11.12
2022-10-24T08:44:56.699Z,11.17
2022-10-24T08:49:58.444Z,11.35
2022-10-24T08:52:25.990Z,11.44
2022-10-24T08:54:37.488Z,11.52
2022-10-24T08:56:39.627Z,11.78
2022-10-24T08:58:45.305Z,12.09
2022-10-24T09:00:51.227Z,12.30
2022-10-24T09:03:03.291Z,12.29
2022-10-24T09:05:36.644Z,12.43
2022-10-24T09:07:40.166Z,12.57
2022-10-24T09:09:48.002Z,12.53
2022-10-24T09:12:16.850Z,12.67
2022-10-24T09:14:26.466Z,12.72
2022-10-24T09:16:28.571Z,12.79
2022-10-24T09:18:38.125Z,12.78
2022-10-24T09:20:40.142Z,12.96
2022-10-24T09:22:44.287Z,13.03
2022-10-24T09:24:48.655Z,13.29
2022-10-24T09:26:50.561Z,13.33
2022-10-24T09:28:52.468Z,13.59
2022-10-24T09:30:54.614Z,13.38
2022-10-24T09:32:59.003Z,13.29
2022-10-24T09:35:06.210Z,13.36
2022-10-24T09:37:08.317Z,13.35
2022-10-24T09:39:36.633Z,13.28
2022-10-24T09:41:38.820Z,13.29
2022-10-24T09:43:51.195Z,13.29
2022-10-24T09:46:01.880Z,13.36
2022-10-24T09:48:15.428Z,13.41
2022-10-24T09:50:23.389Z,13.46
2022-10-24T09:52:29.031Z,13.53
2022-10-24T09:54:32.806Z,13.57
2022-10-24T09:56:40.485Z,13.64
2022-10-24T09:58:43.266Z,13.61
2022-10-24T10:00:58.824Z,13.64
2022-10-24T10:03:23.454Z,13.79
2022-10-24T10:05:26.293Z,13.77
2022-10-24T10:07:31.089Z,13.89
2022-10-24T10:09:35.209Z,13.90
2022-10-24T10:11:40.581Z,13.89
2022-10-24T10:13:50.968Z,14.05
2022-10-24T10:16:00.321Z,14.05
2022-10-24T10:18:28.281Z,14.19
2022-10-24T10:20:41.326Z,14.29
2022-10-24T10:22:43.262Z,13.87
2022-10-24T10:24:46.362Z,13.90
2022-10-24T10:26:50.231Z,14.14
2022-10-24T10:29:23.357Z,14.35
2022-10-24T10:31:34.742Z,14.51
2022-10-24T10:33:40.315Z,14.78
2022-10-24T10:36:10.185Z,14.63
2022-10-24T10:38:36.875Z,14.49
2022-10-24T10:40:45.394Z,14.70
2022-10-24T10:43:02.602Z,14.69
2022-10-24T10:45:16.976Z,14.79
2022-10-24T10:47:51.085Z,14.74
2022-10-24T10:49:58.142Z,14.75
2022-10-24T10:52:13.957Z,14.81
2022-10-24T10:54:42.841Z,14.82
2022-10-24T10:57:01.928Z,14.87
2022-10-24T10:59:29.403Z,14.86
2022-10-24T11:02:03.678Z,14.86
2022-10-24T11:04:21.195Z,14.89
2022-10-24T11:06:50.409Z,14.95
2022-10-24T11:09:10.510Z,14.94
2022-10-24T11:11:21.202Z,14.94
2022-10-24T11:14:03.683Z,14.90
2022-10-24T11:16:17.926Z,14.90
2022-10-24T11:18:35.435Z,14.91
2022-10-24T11:21:18.269Z,14.94
2022-10-24T11:23:36.445Z,14.99
2022-10-24T11:25:51.115Z,14.99
2022-10-24T11:28:00.716Z,14.99
2022-10-24T11:30:12.734Z,14.95
2022-10-24T11:32:35.015Z,15.05
2022-10-24T11:34:45.415Z,15.06
2022-10-24T11:36:55.910Z,15.06
2022-10-24T11:39:14.603Z,15.10
2022-10-24T11:41:40.366Z,15.17
2022-10-24T11:43:47.040Z,15.18
2022-10-24T11:45:56.652Z,15.20
2022-10-24T11:48:22.081Z,15.25
2022-10-24T11:50:57.670Z,15.52
2022-10-24T11:53:15.142Z,15.56
2022-10-24T11:55:21.355Z,15.78
2022-10-24T11:57:29.173Z,15.86
2022-10-24T11:59:32.141Z,15.92
2022-10-24T12:01:55.977Z,16.02
2022-10-24T12:04:35.345Z,16.03
2022-10-24T12:07:07.438Z,15.89
2022-10-24T12:09:33.675Z,15.83
2022-10-24T12:11:57.206Z,15.99
2022-10-24T12:14:19.327Z,16.01
2022-10-24T12:16:47.095Z,16.17
2022-10-24T12:18:59.713Z,16.15
2022-10-24T12:21:16.831Z,16.13
2022-10-24T12:23:23.290Z,16.01
2022-10-24T12:25:38.741Z,16.12
2022-10-24T12:27:43.385Z,16.18
2022-10-24T12:29:45.492Z,16.14
2022-10-24T12:31:47.533Z,16.23
2022-10-24T12:34:18.754Z,16.20
2022-10-24T12:36:58.893Z,16.11
2022-10-24T12:39:00.868Z,16.17
2022-10-24T12:41:26.623Z,16.02
2022-10-24T12:43:36.140Z,15.96
2022-10-24T12:45:38.312Z,16.00
2022-10-24T12:48:04.202Z,16.10
2022-10-24T12:50:24.557Z,16.20
2022-10-24T12:52:32.468Z,16.32
2022-10-24T12:54:45.315Z,16.30
2022-10-24T12:57:16.020Z,16.25
2022-10-24T12:59:32.193Z,16.20
2022-10-24T13:01:35.989Z,16.30
2022-10-24T13:03:37.972Z,16.29
2022-10-24T13:05:57.813Z,16.31
2022-10-24T13:08:13.334Z,16.32
2022-10-24T13:10:44.914Z,16.35
2022-10-24T13:12:52.319Z,16.41
2022-10-24T13:15:10.474Z,16.45
2022-10-24T13:17:37.463Z,16.47
2022-10-24T13:19:40.857Z,16.55
2022-10-24T13:21:55.502Z,16.56
2022-10-24T13:24:15.584Z,16.55
2022-10-24T13:26:38.128Z,16.48
2022-10-24T13:28:40.807Z,16.40
2022-10-24T13:30:46.019Z,16.37
2022-10-24T13:32:51.072Z,16.33
2022-10-24T13:34:54.873Z,16.31
2022-10-24T13:37:15.078Z,16.24
2022-10-24T13:39:22.174Z,16.19
2022-10-24T13:41:34.210Z,16.20
2022-10-24T13:43:44.629Z,16.18
2022-10-24T13:45:57.733Z,16.17
2022-10-24T13:48:16.359Z,16.18
2022-10-24T13:50:20.856Z,16.14
2022-10-24T13:52:33.813Z,16.12
2022-10-24T13:54:38.480Z,16.12
2022-10-24T13:56:44.579Z,16.17
2022-10-24T13:58:47.605Z,16.18
2022-10-24T14:01:00.355Z,16.18
2022-10-24T14:03:05.922Z,16.19
2022-10-24T14:05:38.952Z,16.19
2022-10-24T14:07:45.151Z,16.17
2022-10-24T14:09:56.223Z,16.14
2022-10-24T14:11:59.603Z,16.11
2022-10-24T14:14:07.058Z,16.10
2022-10-24T14:16:15.152Z,16.05
2022-10-24T14:20:27.114Z,15.94
2022-10-24T14:22:42.758Z,15.90
2022-10-24T14:24:48.560Z,15.79
2022-10-24T14:26:53.558Z,15.73
2022-10-24T14:29:00.147Z,15.68
2022-10-24T14:31:05.580Z,15.63
2022-10-24T14:33:21.140Z,15.49
2022-10-24T14:35:23.239Z,15.43
2022-10-24T14:37:51.156Z,15.37
2022-10-24T14:39:54.718Z,15.27
2022-10-24T14:41:58.773Z,15.22
2022-10-24T14:44:02.430Z,15.14
2022-10-24T14:46:13.694Z,15.09
2022-10-24T14:48:28.655Z,15.07
2022-10-24T14:50:47.495Z,15.10
2022-10-24T14:52:50.393Z,15.05
2022-10-24T14:55:21.285Z,15.07
2022-10-24T14:57:24.100Z,15.05
2022-10-24T14:59:36.586Z,14.96
2022-10-24T15:01:38.605Z,14.97
2022-10-24T15:03:54.926Z,15.02
2022-10-24T15:06:10.124Z,15.00
2022-10-24T15:08:23.201Z,14.89
2022-10-24T15:10:32.964Z,14.89
2022-10-24T15:13:07.350Z,14.74
2022-10-24T15:15:24.051Z,14.31
2022-10-24T15:17:34.903Z,14.01
2022-10-24T15:19:38.759Z,13.84
2022-10-24T15:21:44.889Z,13.66
2022-10-24T15:23:56.320Z,13.51
2022-10-24T15:26:00.224Z,13.32
2022-10-24T15:28:04.094Z,13.24
2022-10-24T15:30:17.404Z,13.21
2022-10-24T15:32:19.308Z,13.10
2022-10-24T15:34:23.705Z,13.07
2022-10-24T15:36:34.904Z,12.95
2022-10-24T15:38:43.179Z,12.94
2022-10-24T15:40:47.649Z,13.12
2022-10-24T15:42:49.836Z,12.66
2022-10-24T15:44:51.776Z,12.72
2022-10-24T15:46:53.874Z,12.75
2022-10-24T15:48:55.919Z,12.71
2022-10-24T15:50:58.907Z,12.49
2022-10-24T15:53:02.572Z,12.49
2022-10-24T15:55:04.941Z,12.37
2022-10-24T15:57:07.018Z,12.36
2022-10-24T15:59:09.312Z,12.27
2022-10-24T16:01:30.664Z,12.07
2022-10-24T16:03:35.547Z,12.06
2022-10-24T16:05:40.963Z,12.06
2022-10-24T16:07:43.170Z,12.11
2022-10-24T16:09:45.226Z,12.06
2022-10-24T16:11:48.738Z,12.09
2022-10-24T16:13:51.304Z,11.92
2022-10-24T16:15:53.701Z,11.89
2022-10-24T16:17:58.323Z,11.73
2022-10-24T16:20:00.320Z,11.77
2022-10-24T16:22:03.821Z,11.65
2022-10-24T16:24:06.178Z,11.91
2022-10-24T16:26:08.314Z,11.87
2022-10-24T16:28:10.737Z,11.76
2022-10-24T16:30:13.851Z,11.54
2022-10-24T16:32:15.850Z,11.54
2022-10-24T16:34:17.881Z,11.36
2022-10-24T16:36:22.324Z,11.32
2022-10-24T16:38:26.787Z,11.45
2022-10-24T16:40:29.896Z,11.51
2022-10-24T16:42:31.868Z,11.50
2022-10-24T16:44:37.107Z,11.67
2022-10-24T16:46:39.599Z,11.35
2022-10-24T16:48:41.604Z,11.52
2022-10-24T16:50:46.952Z,11.54
2022-10-24T16:52:49.022Z,11.15
2022-10-24T16:54:51.110Z,11.07
2022-10-24T16:56:54.076Z,11.16
2022-10-24T16:58:59.354Z,11.75
2022-10-24T17:01:06.218Z,11.58
2022-10-24T17:03:08.585Z,11.31
2022-10-24T17:05:10.645Z,11.65
2022-10-24T17:07:15.452Z,11.78
2022-10-24T17:09:21.677Z,11.80
2022-10-24T17:11:44.520Z,11.33
2022-10-24T17:13:47.571Z,11.41
2022-10-24T17:15:50.028Z,11.16
2022-10-24T17:17:52.421Z,11.41
2022-10-24T17:19:54.832Z,11.61
2022-10-24T17:21:58.498Z,11.68
2022-10-24T17:24:01.340Z,11.68
2022-10-24T17:26:03.477Z,11.42
2022-10-24T17:28:06.435Z,11.81
2022-10-24T17:30:12.767Z,12.01
2022-10-24T17:32:15.364Z,11.88
2022-10-24T17:34:17.915Z,11.95
2022-10-24T17:36:28.815Z,12.03
2022-10-24T17:38:42.943Z,12.01
2022-10-24T17:40:48.762Z,11.67
2022-10-24T17:42:51.017Z,11.72
2022-10-24T17:44:53.889Z,11.36
2022-10-24T17:46:58.520Z,11.03
2022-10-24T17:49:00.492Z,11.33
2022-10-24T17:51:02.910Z,11.35
2022-10-24T17:53:05.377Z,11.52
2022-10-24T17:55:41.021Z,11.38
2022-10-24T17:57:40.933Z,11.24
2022-10-24T17:59:43.669Z,10.64
2022-10-24T18:01:48.676Z,10.68
2022-10-24T18:03:52.155Z,10.60
2022-10-24T18:05:59.240Z,10.68
2022-10-24T18:08:01.353Z,10.40
2022-10-24T18:10:03.836Z,10.30
2022-10-24T18:12:07.967Z,10.50
2022-10-24T18:14:10.536Z,10.35
2022-10-24T18:16:17.341Z,10.55
2022-10-24T18:18:23.861Z,10.56
2022-10-24T18:20:26.398Z,10.44
2022-10-24T18:22:33.452Z,10.40
2022-10-24T18:24:36.992Z,10.43
2022-10-24T18:26:39.474Z,10.47
2022-10-24T18:28:44.195Z,10.33
2022-10-24T18:30:51.695Z,10.37
2022-10-24T18:32:54.215Z,10.05
2022-10-24T18:34:56.757Z,10.41
2022-10-24T18:36:59.170Z,10.43
2022-10-24T18:39:02.064Z,10.55
2022-10-24T18:41:04.813Z,10.49
2022-10-24T18:43:08.250Z,10.40
2022-10-24T18:45:20.288Z,10.32
2022-10-24T18:47:25.642Z,10.43
2022-10-24T18:49:29.927Z,10.21
2022-10-24T18:51:46.302Z,10.10
2022-10-24T18:53:51.182Z,10.07
2022-10-24T18:55:56.214Z,10.14
2022-10-24T18:57:59.101Z,10.13
2022-10-24T19:00:02.435Z,10.02
2022-10-24T19:02:04.874Z,10.19
2022-10-24T19:04:17.183Z,9.92
2022-10-24T19:06:26.095Z,9.86
2022-10-24T19:08:28.691Z,10.06
2022-10-24T19:10:30.808Z,10.02
2022-10-24T19:12:36.868Z,10.13
2022-10-24T19:14:43.628Z,10.17
2022-10-24T19:16:49.864Z,10.06
2022-10-24T19:18:56.301Z,10.03
2022-10-24T19:21:02.457Z,10.06
2022-10-24T19:23:07.041Z,10.25
2022-10-24T19:25:09.660Z,9.81
2022-10-24T19:27:17.509Z,9.91
2022-10-24T19:29:21.766Z,10.01
2022-10-24T19:31:24.560Z,9.84
2022-10-24T19:33:28.620Z,10.24
2022-10-24T19:35:30.965Z,9.99
2022-10-24T19:37:33.440Z,9.90
2022-10-24T19:39:38.187Z,10.13
2022-10-24T19:41:40.736Z,10.21
2022-10-24T19:43:43.146Z,10.26
2022-10-24T19:45:50.428Z,10.05
2022-10-24T19:47:57.874Z,10.22
2022-10-24T19:50:00.743Z,10.09
2022-10-24T19:52:04.385Z,10.53
2022-10-24T19:54:07.867Z,10.33
2022-10-24T19:56:17.393Z,10.51
2022-10-24T19:58:22.736Z,10.47
2022-10-24T20:00:26.691Z,10.76
2022-10-24T20:02:29.058Z,10.91
2022-10-24T20:04:31.974Z,10.94
2022-10-24T20:06:35.835Z,11.30
2022-10-24T20:08:38.227Z,11.34
2022-10-24T20:10:40.560Z,11.42
2022-10-24T20:12:43.010Z,11.64
2022-10-24T20:14:45.473Z,11.79
2022-10-24T20:16:47.771Z,11.97
2022-10-24T20:18:54.184Z,12.11
2022-10-24T20:20:58.084Z,12.10
2022-10-24T20:23:00.344Z,12.15
2022-10-24T20:25:02.274Z,12.42
2022-10-24T20:29:06.896Z,12.61
2022-10-24T20:31:09.483Z,12.74
2022-10-24T20:33:14.903Z,12.90
2022-10-24T20:35:16.926Z,13.04
2022-10-24T20:37:23.773Z,13.14
2022-10-24T20:39:26.407Z,13.31
2022-10-24T20:41:29.631Z,13.39
2022-10-24T20:43:31.827Z,13.50
2022-10-24T20:45:35.357Z,13.66
2022-10-24T20:47:37.405Z,13.73
2022-10-24T20:49:39.452Z,13.82
2022-10-24T20:51:43.135Z,13.94
2022-10-24T20:53:45.921Z,13.93
2022-10-24T20:55:47.877Z,14.06
2022-10-24T20:57:52.217Z,14.09
2022-10-24T20:59:55.200Z,14.17
2022-10-24T21:01:57.310Z,14.19
2022-10-24T21:03:59.686Z,14.20
2022-10-24T21:06:02.430Z,14.25
2022-10-24T21:08:04.621Z,14.28
2022-10-24T21:10:10.815Z,14.29
2022-10-24T21:12:13.204Z,14.34
2022-10-24T21:14:26.476Z,14.42
2022-10-24T21:16:31.534Z,14.47
2022-10-24T21:18:33.558Z,14.50
2022-10-24T21:20:36.372Z,14.49
2022-10-24T21:22:39.267Z,14.45
2022-10-24T21:24:44.423Z,14.54
2022-10-24T21:26:46.671Z,14.68
2022-10-24T21:28:49.347Z,14.70
2022-10-24T21:30:51.205Z,14.70
2022-10-24T21:32:53.203Z,14.76
2022-10-24T21:34:55.181Z,14.75
2022-10-24T21:36:57.274Z,14.70
2022-10-24T21:38:59.886Z,14.66
2022-10-24T21:41:07.297Z,14.71
2022-10-24T21:43:09.269Z,14.73
2022-10-24T21:45:11.508Z,14.71
2022-10-24T21:47:13.408Z,14.57
2022-10-24T21:49:15.423Z,14.56
2022-10-24T21:51:18.808Z,14.57
2022-10-24T21:53:20.812Z,14.61
2022-10-24T21:55:22.951Z,14.62
2022-10-24T21:57:24.901Z,14.63
2022-10-24T21:59:29.039Z,14.58
2022-10-24T22:01:35.315Z,14.46
2022-10-24T22:03:37.950Z,14.45
2022-10-24T22:05:39.810Z,14.46
2022-10-24T22:07:43.042Z,14.41
2022-10-24T22:09:47.008Z,14.36
2022-10-24T22:11:51.944Z,14.26
2022-10-24T22:13:55.336Z,14.30
2022-10-24T22:15:57.737Z,14.27
2022-10-24T22:17:59.566Z,14.38
2022-10-24T22:20:01.396Z,14.28
2022-10-24T22:22:03.410Z,14.22
2022-10-24T22:24:14.554Z,14.25
2022-10-24T22:26:16.518Z,14.14
2022-10-24T22:28:18.726Z,14.15
2022-10-24T22:30:20.578Z,14.24
2022-10-24T22:32:23.881Z,14.23
2022-10-24T22:34:27.290Z,14.09
2022-10-24T22:36:59.202Z,14.06
2022-10-24T22:39:01.465Z,14.09
2022-10-24T22:41:03.765Z,14.11
2022-10-24T22:43:07.007Z,14.11
2022-10-24T22:45:12.767Z,14.13
2022-10-24T22:47:35.746Z,14.10
2022-10-24T22:50:09.781Z,14.07
2022-10-24T22:52:12.184Z,14.05
2022-10-24T22:54:23.142Z,14.07
2022-10-24T22:56:33.613Z,14.02
2022-10-24T22:58:35.833Z,14.00
2022-10-24T23:00:38.295Z,13.99
2022-10-24T23:02:45.764Z,13.99
2022-10-24T23:04:53.821Z,14.02
2022-10-24T23:07:11.682Z,14.00
2022-10-24T23:09:13.571Z,13.99
2022-10-24T23:11:15.724Z,13.99
2022-10-24T23:13:17.785Z,13.99
2022-10-24T23:15:21.606Z,13.98
2022-10-24T23:17:28.728Z,13.96
2022-10-24T23:19:32.351Z,13.90
2022-10-24T23:21:41.936Z,13.88
2022-10-24T23:23:44.148Z,13.86
2022-10-24T23:26:03.849Z,13.89
2022-10-24T23:28:08.201Z,13.89
2022-10-24T23:30:18.112Z,13.83
2022-10-24T23:32:26.084Z,13.78
2022-10-24T23:34:28.247Z,13.71
2022-10-24T23:36:30.403Z,13.62
2022-10-24T23:38:32.825Z,13.63
2022-10-24T23:40:36.502Z,13.58
2022-10-24T23:42:38.697Z,13.57
2022-10-24T23:44:40.792Z,13.50
2022-10-24T23:46:48.407Z,13.49
2022-10-24T23:49:25.511Z,13.42
2022-10-24T23:51:27.533Z,13.35
2022-10-24T23:53:53.274Z,13.34
2022-10-24T23:55:55.775Z,13.35
2022-10-24T23:57:57.780Z,13.25
